Time;durP1;ratioP1;P1;durP2;ratioP2;P2;SDS_P1;SDS_P2;PMS_P1;PMS_P2;Temp;Humidity;BMP_temperature;BMP_pressure;BME280_temperature;BME280_humidity;BME280_pressure;Samples;Min_cycle;Max_cycle;Signal;HPM_P1;HPM_P2
2023/07/02 00:00:08;;;;;;;7.13;2.50;;;;;;;17.70;70.96;100472.28;7390542;19;20022;-75
2023/07/02 00:02:36;;;;;;;7.93;2.38;;;;;;;17.66;70.86;100468.25;7391159;19;20014;-68
2023/07/02 00:05:05;;;;;;;5.70;1.90;;;;;;;17.67;70.92;100459.25;7387849;19;20621;-68
2023/07/02 00:07:34;;;;;;;9.52;1.90;;;;;;;17.63;71.20;100461.41;7390619;19;20022;-67
2023/07/02 00:10:02;;;;;;;7.57;2.00;;;;;;;17.68;70.97;100467.09;7390694;19;20014;-67
2023/07/02 00:12:29;;;;;;;8.27;2.00;;;;;;;17.63;71.17;100466.78;7390302;19;20029;-68
2023/07/02 00:14:56;;;;;;;4.32;1.77;;;;;;;17.67;71.27;100461.94;7386758;19;20111;-67
2023/07/02 00:17:23;;;;;;;6.95;1.98;;;;;;;17.68;71.06;100464.44;7390103;19;20089;-68
2023/07/02 00:19:51;;;;;;;6.40;2.20;;;;;;;17.71;70.90;100464.09;7390490;19;20039;-67
2023/07/02 00:22:20;;;;;;;8.07;2.17;;;;;;;17.73;70.79;100463.91;7390159;19;20506;-68
2023/07/02 00:24:50;;;;;;;7.80;2.17;;;;;;;17.69;70.84;100468.78;7388265;19;20082;-69
2023/07/02 00:27:17;;;;;;;4.90;1.80;;;;;;;17.69;70.72;100466.09;7390344;19;20043;-69
2023/07/02 00:29:45;;;;;;;6.78;2.30;;;;;;;17.77;70.52;100465.28;7389985;19;20018;-69
2023/07/02 00:32:12;;;;;;;6.35;2.25;;;;;;;17.74;70.42;100465.59;7390146;19;20014;-70
2023/07/02 00:34:39;;;;;;;5.88;2.00;;;;;;;17.75;70.49;100459.28;7389117;19;20019;-69
2023/07/02 00:37:06;;;;;;;5.25;2.40;;;;;;;17.76;70.49;100463.63;7389759;19;20018;-68
2023/07/02 00:39:33;;;;;;;8.43;2.40;;;;;;;17.76;70.08;100455.59;7389425;19;20030;-68
2023/07/02 00:42:02;;;;;;;4.20;2.00;;;;;;;17.77;70.29;100460.78;7390086;19;20027;-68
2023/07/02 00:44:30;;;;;;;7.25;2.22;;;;;;;17.77;70.12;100463.44;7388267;19;20019;-67
2023/07/02 00:46:57;;;;;;;10.32;2.38;;;;;;;17.75;70.44;100459.28;7389253;19;20015;-67
2023/07/02 00:49:25;;;;;;;5.55;2.30;;;;;;;17.80;70.38;100456.09;7399387;19;20047;-68
2023/07/02 00:51:52;;;;;;;5.22;2.00;;;;;;;17.80;70.19;100456.09;7397397;19;20527;-68
2023/07/02 00:54:19;;;;;;;6.68;2.38;;;;;;;17.77;70.52;100452.72;7395706;19;20027;-68
2023/07/02 00:56:47;;;;;;;5.75;2.35;;;;;;;17.83;70.12;100458.44;7396623;19;20102;-63
2023/07/02 00:59:14;;;;;;;9.07;2.60;;;;;;;17.84;70.04;100452.06;7396537;19;20551;-65
2023/07/02 01:01:41;;;;;;;10.98;2.75;;;;;;;17.84;69.83;100452.06;7396736;19;20385;-63
2023/07/02 01:04:09;;;;;;;7.97;2.28;;;;;;;17.88;70.06;100448.06;7395819;19;20515;-63
2023/07/02 01:06:40;;;;;;;7.43;2.22;;;;;;;17.89;69.57;100453.22;7395795;19;20488;-66
2023/07/02 01:09:09;;;;;;;5.70;2.40;;;;;;;17.86;69.63;100455.41;7396680;19;20018;-66
2023/07/02 01:11:38;;;;;;;10.25;2.58;;;;;;;17.85;69.85;100459.09;7395889;19;20032;-65
2023/07/02 01:14:12;;;;;;;8.52;2.78;;;;;;;17.87;69.97;100452.59;7395524;19;20101;-67
2023/07/02 01:16:43;;;;;;;6.47;2.20;;;;;;;17.84;69.90;100452.06;7393420;19;20015;-67
2023/07/02 01:19:18;;;;;;;6.68;2.30;;;;;;;17.82;69.80;100448.72;7396327;19;20018;-66
2023/07/02 01:21:49;;;;;;;5.43;2.40;;;;;;;17.82;69.30;100451.38;7395755;19;20023;-66
2023/07/02 01:24:17;;;;;;;7.60;2.60;;;;;;;17.78;69.54;100457.09;7395085;19;20111;-67
2023/07/02 01:26:45;;;;;;;9.38;2.85;;;;;;;17.73;69.75;100445.19;7395018;19;20078;-66
2023/07/02 01:29:20;;;;;;;7.20;2.30;;;;;;;17.81;69.26;100458.59;7396093;19;20019;-66
2023/07/02 01:31:48;;;;;;;8.63;2.35;;;;;;;17.70;69.40;100448.19;7395690;19;20022;-66
2023/07/02 01:34:15;;;;;;;7.43;2.67;;;;;;;17.66;69.49;100453.03;7395126;19;20444;-66
2023/07/02 01:36:42;;;;;;;6.05;2.67;;;;;;;17.72;69.21;100452.38;7394695;19;20097;-66
2023/07/02 01:39:10;;;;;;;7.00;2.45;;;;;;;17.72;69.49;100459.56;7395612;19;20018;-66
2023/07/02 01:41:54;;;;;;;11.68;3.20;;;;;;;17.76;69.16;100460.94;7395540;19;20014;-66
2023/07/02 01:44:22;;;;;;;8.88;2.90;;;;;;;17.68;69.11;100452.88;7395069;19;20045;-65
2023/07/02 01:46:49;;;;;;;6.07;2.78;;;;;;;17.62;69.34;100459.72;7394929;19;20037;-65
2023/07/02 01:49:17;;;;;;;7.68;2.83;;;;;;;17.62;69.19;100457.03;7398018;19;20022;-66
2023/07/02 01:51:49;;;;;;;9.07;2.90;;;;;;;17.66;69.01;100461.06;7395105;19;20093;-66
2023/07/02 01:54:16;;;;;;;6.93;3.03;;;;;;;17.61;69.24;100466.09;7393585;19;20018;-66
2023/07/02 01:56:43;;;;;;;6.32;2.60;;;;;;;17.53;69.74;100466.91;7395097;19;20014;-66
2023/07/02 01:59:11;;;;;;;10.35;3.30;;;;;;;17.56;69.49;100470.28;7392697;19;20464;-65
2023/07/02 02:01:41;;;;;;;9.02;2.90;;;;;;;17.53;69.46;100472.28;7394472;19;20031;-69
2023/07/02 02:04:09;;;;;;;9.60;3.33;;;;;;;17.50;69.66;100469.09;7394290;19;20026;-68
2023/07/02 02:06:38;;;;;;;8.73;3.08;;;;;;;17.49;69.50;100475.47;7394312;19;20021;-68
2023/07/02 02:09:06;;;;;;;8.38;3.13;;;;;;;17.43;69.52;100468.06;7392828;19;20023;-67
2023/07/02 02:11:34;;;;;;;8.77;3.40;;;;;;;17.48;69.24;100471.09;7394059;19;20073;-67
2023/07/02 02:14:01;;;;;;;7.72;3.40;;;;;;;17.43;68.81;100473.44;7394238;19;20046;-66
2023/07/02 02:16:29;;;;;;;7.70;3.10;;;;;;;17.41;68.93;100480.78;7392998;19;20070;-66
2023/07/02 02:18:56;;;;;;;8.73;3.38;;;;;;;17.45;68.57;100482.13;7394688;19;20027;-66
2023/07/02 02:21:23;;;;;;;9.43;3.60;;;;;;;17.46;68.69;100481.13;7394185;19;20029;-73
2023/07/02 02:23:51;;;;;;;9.68;3.67;;;;;;;17.47;68.34;100472.09;7394157;19;20184;-70
2023/07/02 02:26:18;;;;;;;12.65;3.97;;;;;;;17.41;68.25;100470.09;7392539;19;20019;-73
2023/07/02 02:28:45;;;;;;;11.85;4.40;;;;;;;17.42;68.14;100472.59;7392926;19;20467;-73
2023/07/02 02:31:12;;;;;;;12.93;4.35;;;;;;;17.38;68.25;100484.63;7394147;19;20026;-73
2023/07/02 02:33:40;;;;;;;9.90;4.18;;;;;;;17.38;68.02;100486.47;7392673;19;20104;-73
2023/07/02 02:36:07;;;;;;;12.05;4.05;;;;;;;17.34;68.01;100493.16;7390667;19;20501;-69
2023/07/02 02:38:34;;;;;;;11.90;4.30;;;;;;;17.32;68.04;100487.94;7392085;19;20031;-66
2023/07/02 02:41:02;;;;;;;10.82;4.20;;;;;;;17.33;68.05;100492.31;7393112;19;20064;-61
2023/07/02 02:43:29;;;;;;;12.23;4.22;;;;;;;17.35;67.77;100486.78;7393128;19;20018;-68
2023/07/02 02:45:56;;;;;;;10.27;4.13;;;;;;;17.32;68.01;100482.59;7390292;19;20018;-73
2023/07/02 02:48:23;;;;;;;11.65;3.92;;;;;;;17.37;67.97;100479.44;7394208;19;20539;-74
2023/07/02 02:50:51;;;;;;;11.90;4.22;;;;;;;17.37;67.66;100476.78;7392779;19;20014;-74
2023/07/02 02:53:18;;;;;;;12.82;4.10;;;;;;;17.29;68.20;100473.06;7393435;19;20377;-74
2023/07/02 02:55:45;;;;;;;16.55;5.00;;;;;;;17.22;68.01;100472.06;7390495;19;20022;-62
2023/07/02 02:58:12;;;;;;;10.48;4.40;;;;;;;17.21;68.38;100473.06;7392582;19;20047;-61
2023/07/02 03:00:42;;;;;;;12.30;4.53;;;;;;;17.25;68.07;100476.25;7392904;19;20025;-62
2023/07/02 03:03:09;;;;;;;10.05;3.70;;;;;;;17.25;67.91;100474.41;7392660;19;20043;-61
2023/07/02 03:05:37;;;;;;;12.00;4.25;;;;;;;17.24;68.13;100475.38;7390835;19;20026;-61
2023/07/02 03:08:05;;;;;;;12.13;4.32;;;;;;;17.21;68.34;100486.44;7391913;19;20018;-61
2023/07/02 03:10:32;;;;;;;10.68;4.10;;;;;;;17.10;68.69;100477.88;7392125;19;20018;-62
2023/07/02 03:13:00;;;;;;;13.82;4.30;;;;;;;17.11;68.67;100477.69;7390536;19;20018;-61
2023/07/02 03:15:27;;;;;;;13.88;4.63;;;;;;;17.10;68.58;100484.06;7390759;19;20340;-61
2023/07/02 03:17:54;;;;;;;12.75;4.75;;;;;;;17.09;68.77;100487.72;7390429;19;20019;-61
2023/07/02 03:20:22;;;;;;;12.85;4.68;;;;;;;17.08;68.65;100480.69;7392400;19;20019;-72
2023/07/02 03:22:49;;;;;;;11.98;4.72;;;;;;;17.10;68.56;100484.06;7392099;19;20014;-70
2023/07/02 03:25:17;;;;;;;15.75;5.07;;;;;;;17.17;68.63;100498.47;7389787;19;20492;-70
2023/07/02 03:27:44;;;;;;;11.50;4.50;;;;;;;17.14;68.28;100495.28;7393642;19;20629;-70
2023/07/02 03:30:11;;;;;;;14.95;5.03;;;;;;;17.07;68.32;100495.06;7399746;19;20015;-70
2023/07/02 03:32:38;;;;;;;11.10;4.20;;;;;;;17.08;68.70;100491.41;7396768;19;20019;-69
2023/07/02 03:35:06;;;;;;;15.95;4.95;;;;;;;17.07;68.45;100491.56;7391398;19;20032;-70
2023/07/02 03:37:33;;;;;;;11.95;5.07;;;;;;;17.03;68.27;100497.25;7392243;19;20014;-70
2023/07/02 03:40:00;;;;;;;14.32;5.32;;;;;;;17.03;68.28;100497.25;7392155;19;20146;-69
2023/07/02 03:42:28;;;;;;;16.75;5.35;;;;;;;17.01;68.49;100496.53;7391212;19;20034;-63
2023/07/02 03:44:55;;;;;;;15.05;5.03;;;;;;;16.93;68.50;100501.03;7390109;19;20028;-64
2023/07/02 03:47:23;;;;;;;12.63;5.18;;;;;;;16.98;68.18;100496.03;7390931;19;20106;-63
2023/07/02 03:49:50;;;;;;;12.65;5.43;;;;;;;17.00;68.18;100497.56;7393551;19;20019;-63
2023/07/02 03:52:17;;;;;;;15.32;5.65;;;;;;;17.00;68.30;100496.72;7391293;19;20018;-63
2023/07/02 03:54:45;;;;;;;16.20;5.10;;;;;;;17.03;68.22;100493.72;7388303;19;20014;-63
2023/07/02 03:57:12;;;;;;;13.20;5.35;;;;;;;16.98;68.32;100491.53;7390111;19;20019;-63
2023/07/02 03:59:39;;;;;;;13.63;5.47;;;;;;;16.98;68.10;100494.22;7391088;19;20086;-62
2023/07/02 04:02:06;;;;;;;13.60;5.28;;;;;;;16.98;68.13;100499.56;7389055;19;20081;-64
2023/07/02 04:04:33;;;;;;;15.75;5.45;;;;;;;16.96;68.24;100498.03;7390247;19;20028;-64
2023/07/02 04:07:01;;;;;;;16.10;5.85;;;;;;;16.95;67.91;100497.22;7389986;19;20014;-65
2023/07/02 04:09:28;;;;;;;16.50;5.65;;;;;;;16.94;68.13;100503.56;7390163;19;20018;-64
2023/07/02 04:11:55;;;;;;;14.73;6.38;;;;;;;16.95;67.76;100497.22;7390880;19;20018;-64
2023/07/02 04:14:23;;;;;;;17.27;5.80;;;;;;;16.98;67.68;100507.59;7390122;19;20022;-64
2023/07/02 04:16:50;;;;;;;18.52;5.68;;;;;;;17.02;67.35;100506.28;7388437;19;20029;-63
2023/07/02 04:19:17;;;;;;;14.95;6.32;;;;;;;17.03;67.18;100507.09;7390367;19;20022;-64
2023/07/02 04:21:44;;;;;;;16.27;5.85;;;;;;;16.97;67.20;100507.72;7390752;19;20026;-69
2023/07/02 04:24:11;;;;;;;15.70;6.63;;;;;;;16.95;67.53;100513.25;7396986;19;20478;-71
2023/07/02 04:26:42;;;;;;;16.35;6.40;;;;;;;16.96;67.37;100508.75;7394645;19;20029;-71
2023/07/02 04:29:29;;;;;;;18.20;5.82;;;;;;;16.89;67.31;100513.88;7397574;19;20014;-64
2023/07/02 04:31:57;;;;;;;14.75;5.72;;;;;;;16.98;67.42;100509.41;7399466;19;20018;-65
2023/07/02 04:34:24;;;;;;;16.58;6.25;;;;;;;17.03;67.13;100513.28;7393059;19;20134;-66
2023/07/02 04:36:51;;;;;;;13.90;6.10;;;;;;;17.02;67.17;100516.97;7392800;19;20018;-66
2023/07/02 04:39:20;;;;;;;16.75;6.38;;;;;;;16.95;67.10;100518.59;7393812;19;20507;-63
2023/07/02 04:41:48;;;;;;;17.60;6.10;;;;;;;17.03;66.64;100515.13;7396144;19;20362;-60
2023/07/02 04:44:16;;;;;;;17.23;6.25;;;;;;;17.02;66.72;100511.63;7393357;19;20094;-61
2023/07/02 04:46:43;;;;;;;18.45;6.63;;;;;;;16.99;67.03;100519.13;7393883;19;20018;-66
2023/07/02 04:49:10;;;;;;;14.48;5.90;;;;;;;17.00;66.94;100518.13;7399061;19;20056;-66
2023/07/02 04:51:37;;;;;;;16.88;6.63;;;;;;;17.01;66.71;100515.28;7397470;19;20018;-64
2023/07/02 04:54:04;;;;;;;17.60;7.28;;;;;;;17.05;66.63;100510.44;7397205;19;20086;-65
2023/07/02 04:56:32;;;;;;;18.65;6.97;;;;;;;17.05;66.40;100521.97;7396809;19;20014;-65
2023/07/02 04:58:59;;;;;;;16.95;6.97;;;;;;;16.99;66.65;100525.31;7397128;19;20018;-64
2023/07/02 05:01:28;;;;;;;20.13;7.20;;;;;;;17.02;66.49;100526.84;7400263;19;20021;-66
2023/07/02 05:03:55;;;;;;;20.35;7.30;;;;;;;17.04;66.79;100532.84;7396999;19;20018;-66
2023/07/02 05:06:22;;;;;;;19.50;7.40;;;;;;;17.04;66.66;100536.38;7394051;19;20015;-67
2023/07/02 05:08:49;;;;;;;17.33;6.97;;;;;;;17.14;66.76;100530.91;7396499;19;20099;-67
2023/07/02 05:11:17;;;;;;;17.67;6.53;;;;;;;17.21;66.01;100533.78;7396747;19;20021;-65
2023/07/02 05:13:44;;;;;;;19.48;7.15;;;;;;;17.19;65.92;100527.72;7394588;19;20014;-60
2023/07/02 05:16:11;;;;;;;21.13;8.70;;;;;;;17.13;65.92;100534.56;7393140;19;20019;-60
2023/07/02 05:18:38;;;;;;;20.40;7.40;;;;;;;17.15;65.37;100534.41;7395918;19;20064;-61
2023/07/02 05:21:06;;;;;;;21.75;7.88;;;;;;;17.14;66.03;100530.91;7396078;19;20507;-62
2023/07/02 05:23:33;;;;;;;17.15;7.93;;;;;;;17.18;65.68;100537.59;7396124;19;20022;-61
2023/07/02 05:26:01;;;;;;;23.00;7.50;;;;;;;17.13;65.68;100537.22;7391300;19;20025;-64
2023/07/02 05:28:28;;;;;;;17.10;7.00;;;;;;;17.19;65.04;100539.28;7395932;19;20026;-66
2023/07/02 05:30:56;;;;;;;23.63;7.53;;;;;;;17.19;65.16;100539.28;7395852;19;20107;-66
2023/07/02 05:33:23;;;;;;;21.48;7.47;;;;;;;17.21;64.85;100545.31;7395667;19;20018;-65
2023/07/02 05:35:50;;;;;;;18.45;7.53;;;;;;;17.19;65.45;100533.91;7392607;19;20014;-66
2023/07/02 05:38:19;;;;;;;23.08;8.35;;;;;;;17.28;65.08;100537.47;7395817;19;20034;-66
2023/07/02 05:40:46;;;;;;;19.65;8.00;;;;;;;17.26;64.84;100542.16;7395135;19;20014;-68
2023/07/02 05:43:14;;;;;;;22.55;7.97;;;;;;;17.26;64.94;100545.66;7395737;19;20070;-67
2023/07/02 05:45:41;;;;;;;22.75;7.93;;;;;;;17.24;64.69;100539.63;7391820;19;20030;-71
2023/07/02 05:48:08;;;;;;;22.88;7.18;;;;;;;17.27;64.78;100549.16;7393953;19;20010;-66
2023/07/02 05:50:36;;;;;;;19.30;8.05;;;;;;;17.33;64.84;100537.00;7395219;19;20023;-63
2023/07/02 05:53:03;;;;;;;22.85;7.72;;;;;;;17.32;64.47;100548.69;7395456;19;20015;-63
2023/07/02 05:55:30;;;;;;;20.45;7.78;;;;;;;17.32;64.55;100549.50;7392206;19;20018;-64
2023/07/02 05:58:01;;;;;;;19.67;7.45;;;;;;;17.36;64.38;100550.91;7395334;19;20121;-62
2023/07/02 06:00:29;;;;;;;20.60;7.47;;;;;;;17.40;64.59;100548.69;7394709;19;20047;-61
2023/07/02 06:02:56;;;;;;;21.23;7.78;;;;;;;17.37;64.61;100552.56;7395115;19;20022;-62
2023/07/02 06:05:23;;;;;;;17.45;7.47;;;;;;;17.39;64.22;100549.72;7392243;19;20188;-62
2023/07/02 06:07:51;;;;;;;19.27;7.13;;;;;;;17.37;64.27;100549.06;7394943;19;20085;-62
2023/07/02 06:10:18;;;;;;;19.33;7.45;;;;;;;17.37;64.00;100551.72;7394292;19;20026;-63
2023/07/02 06:12:46;;;;;;;22.10;7.82;;;;;;;17.41;63.52;100545.03;7394434;19;20086;-63
2023/07/02 06:15:13;;;;;;;22.85;8.00;;;;;;;17.41;63.81;100547.72;7391662;19;20025;-62
2023/07/02 06:17:40;;;;;;;24.67;8.00;;;;;;;17.41;63.46;100548.56;7390423;19;20015;-62
2023/07/02 06:20:08;;;;;;;24.77;7.75;;;;;;;17.51;63.44;100556.44;7392169;19;20023;-62
2023/07/02 06:22:35;;;;;;;17.80;7.22;;;;;;;17.53;62.58;100551.78;7394144;19;20019;-62
2023/07/02 06:25:02;;;;;;;21.55;7.70;;;;;;;17.45;62.61;100557.94;7391772;19;20019;-62
2023/07/02 06:27:32;;;;;;;22.20;8.05;;;;;;;17.53;62.38;100557.13;7393796;19;20026;-62
2023/07/02 06:29:59;;;;;;;23.15;7.65;;;;;;;17.57;62.03;100568.34;7393727;19;20618;-62
2023/07/02 06:32:27;;;;;;;20.27;7.88;;;;;;;17.59;61.65;100569.88;7394001;19;20026;-62
2023/07/02 06:34:54;;;;;;;17.10;7.68;;;;;;;17.63;61.57;100578.38;7391757;19;20025;-62
2023/07/02 06:37:21;;;;;;;20.38;7.68;;;;;;;17.64;60.85;100567.53;7391094;19;20032;-61
2023/07/02 06:39:48;;;;;;;19.98;7.50;;;;;;;17.69;61.35;100578.59;7392809;19;20103;-61
2023/07/02 06:42:16;;;;;;;22.80;7.85;;;;;;;17.75;61.24;100593.22;7392930;19;20024;-62
2023/07/02 06:44:43;;;;;;;18.27;7.07;;;;;;;17.80;60.62;100574.78;7390733;19;20025;-62
2023/07/02 06:47:10;;;;;;;23.13;7.68;;;;;;;17.80;60.50;100577.47;7390458;19;20023;-63
2023/07/02 06:49:37;;;;;;;21.90;7.93;;;;;;;17.84;60.21;100589.53;7394337;19;20501;-62
2023/07/02 06:52:05;;;;;;;21.08;8.00;;;;;;;17.77;60.42;100580.47;7392100;19;20021;-62
2023/07/02 06:54:32;;;;;;;19.15;7.22;;;;;;;17.76;60.13;100585.00;7391741;19;20029;-62
2023/07/02 06:56:59;;;;;;;17.52;8.02;;;;;;;17.82;60.48;100593.38;7391585;19;20014;-62
2023/07/02 06:59:27;;;;;;;20.77;7.85;;;;;;;17.83;61.00;100592.38;7392902;19;20019;-63
2023/07/02 07:01:54;;;;;;;24.05;8.23;;;;;;;17.94;60.46;100608.16;7392595;19;20014;-63
2023/07/02 07:04:21;;;;;;;19.70;7.78;;;;;;;17.94;60.27;100592.91;7392080;19;20022;-62
2023/07/02 07:06:49;;;;;;;20.95;8.30;;;;;;;17.90;59.90;100607.66;7390257;19;20118;-63
2023/07/02 07:09:17;;;;;;;19.80;7.68;;;;;;;17.90;59.97;100609.50;7391065;19;20033;-62
2023/07/02 07:11:45;;;;;;;20.65;7.65;;;;;;;17.92;59.58;100613.66;7392461;19;20109;-62
2023/07/02 07:14:12;;;;;;;16.10;6.80;;;;;;;17.98;58.78;100610.34;7392041;19;20422;-63
2023/07/02 07:16:39;;;;;;;18.40;7.32;;;;;;;18.02;57.24;100611.69;7391775;19;20064;-63
2023/07/02 07:19:07;;;;;;;16.83;6.55;;;;;;;18.03;55.82;100602.63;7391251;19;20021;-62
2023/07/02 07:21:35;;;;;;;18.05;6.63;;;;;;;18.09;55.94;100603.81;7391544;19;20023;-62
2023/07/02 07:24:02;;;;;;;17.63;6.10;;;;;;;18.17;55.08;100625.28;7390962;19;20034;-62
2023/07/02 07:26:29;;;;;;;16.55;6.13;;;;;;;18.14;54.75;100614.88;7389871;19;20023;-62
2023/07/02 07:28:57;;;;;;;17.83;6.25;;;;;;;18.13;54.40;100612.38;7391676;19;20350;-60
2023/07/02 07:31:25;;;;;;;13.80;6.00;;;;;;;18.19;53.83;100627.78;7392223;19;20014;-61
2023/07/02 07:33:52;;;;;;;18.15;6.30;;;;;;;18.22;54.31;100639.00;7391061;19;20026;-63
2023/07/02 07:36:19;;;;;;;18.08;6.38;;;;;;;18.26;53.82;100626.94;7390179;19;20478;-64
2023/07/02 07:38:46;;;;;;;16.73;6.07;;;;;;;18.32;53.49;100624.63;7389549;19;20018;-61
2023/07/02 07:41:14;;;;;;;18.60;6.10;;;;;;;18.27;52.88;100620.56;7391253;19;20090;-61
2023/07/02 07:43:41;;;;;;;15.50;5.80;;;;;;;18.31;52.81;100642.53;7390601;19;20025;-62
2023/07/02 07:46:08;;;;;;;16.23;5.85;;;;;;;18.28;52.71;100642.88;7388897;19;20022;-62
2023/07/02 07:48:35;;;;;;;13.90;5.38;;;;;;;18.32;52.98;100638.03;7392882;19;20327;-63
2023/07/02 07:51:03;;;;;;;14.20;5.57;;;;;;;18.35;53.26;100630.47;7390778;19;20019;-62
2023/07/02 07:53:30;;;;;;;12.95;5.10;;;;;;;18.47;52.95;100653.28;7390717;19;20018;-62
2023/07/02 07:55:57;;;;;;;13.18;5.70;;;;;;;18.65;52.73;100645.06;7386526;19;20457;-62
2023/07/02 07:58:25;;;;;;;14.85;5.75;;;;;;;18.63;51.12;100652.44;7386789;19;20499;-62
2023/07/02 08:00:52;;;;;;;15.20;5.40;;;;;;;18.48;51.23;100654.13;7390530;19;20029;-60
2023/07/02 08:03:20;;;;;;;12.68;5.07;;;;;;;18.44;50.41;100650.09;7390543;19;20019;-62
2023/07/02 08:05:47;;;;;;;12.27;5.38;;;;;;;18.37;50.39;100651.75;7387929;19;20019;-62
2023/07/02 08:08:14;;;;;;;14.77;4.70;;;;;;;18.45;51.40;100657.13;7388567;19;20418;-62
2023/07/02 08:10:42;;;;;;;13.32;5.07;;;;;;;18.47;51.37;100655.97;7390037;19;20018;-63
2023/07/02 08:13:09;;;;;;;13.65;4.88;;;;;;;18.59;50.65;100648.44;7390874;19;20018;-63
2023/07/02 08:15:37;;;;;;;14.82;5.00;;;;;;;18.80;49.62;100657.84;7387999;19;20023;-62
2023/07/02 08:18:07;;;;;;;12.93;5.10;;;;;;;18.68;49.99;100652.78;7390674;19;20501;-63
2023/07/02 08:20:34;;;;;;;15.07;5.13;;;;;;;18.69;50.93;100656.28;7389911;19;20025;-62
2023/07/02 08:23:01;;;;;;;16.13;5.60;;;;;;;18.84;51.87;100660.00;7390321;19;20031;-62
2023/07/02 08:25:29;;;;;;;16.98;5.60;;;;;;;19.00;51.84;100664.50;7388585;19;20014;-62
2023/07/02 08:27:56;;;;;;;17.08;5.70;;;;;;;19.18;50.71;100664.31;7387581;19;20018;-61
2023/07/02 08:30:24;;;;;;;14.55;6.07;;;;;;;19.01;50.11;100651.94;7389742;19;20019;-62
2023/07/02 08:32:54;;;;;;;13.77;5.80;;;;;;;18.75;50.33;100664.53;7389540;19;20059;-62
2023/07/02 08:35:21;;;;;;;11.95;5.00;;;;;;;18.52;50.97;100666.19;7388048;19;20015;-60
2023/07/02 08:37:49;;;;;;;14.55;5.22;;;;;;;18.47;51.12;100664.00;7388829;19;20029;-62
2023/07/02 08:40:17;;;;;;;14.70;5.93;;;;;;;18.49;51.24;100666.53;7390021;19;20032;-62
2023/07/02 08:42:47;;;;;;;13.07;5.60;;;;;;;18.67;50.92;100658.31;7389621;19;20095;-61
2023/07/02 08:45:18;;;;;;;11.80;5.05;;;;;;;18.76;50.52;100662.69;7386613;19;20023;-61
2023/07/02 08:47:45;;;;;;;11.32;4.75;;;;;;;18.96;50.20;100664.03;7386476;19;20014;-61
2023/07/02 08:50:13;;;;;;;14.40;5.03;;;;;;;19.05;49.85;100670.22;7393013;19;20492;-61
2023/07/02 08:52:42;;;;;;;14.93;5.45;;;;;;;19.02;50.11;100662.50;7386609;19;20089;-61
2023/07/02 08:55:10;;;;;;;12.15;4.65;;;;;;;19.23;48.90;100667.31;7389186;19;20021;-61
2023/07/02 08:57:37;;;;;;;12.93;4.70;;;;;;;19.24;48.63;100660.94;7387488;19;20014;-61
2023/07/02 09:00:09;;;;;;;13.18;4.60;;;;;;;19.23;48.23;100673.53;7385984;19;20096;-61
2023/07/02 09:02:36;;;;;;;13.65;5.07;;;;;;;19.21;48.84;100672.03;7383582;19;20173;-60
2023/07/02 09:05:04;;;;;;;10.90;4.72;;;;;;;19.37;48.96;100669.28;7386793;19;20014;-61
2023/07/02 09:07:32;;;;;;;13.95;5.07;;;;;;;19.47;49.14;100683.38;7386231;19;20022;-57
2023/07/02 09:09:59;;;;;;;17.70;5.68;;;;;;;19.72;48.74;100677.94;7393509;19;20675;-57
2023/07/02 09:12:28;;;;;;;16.42;5.35;;;;;;;19.83;49.23;100692.84;7394490;19;20126;-58
2023/07/02 09:15:06;;;;;;;16.52;5.25;;;;;;;19.87;49.00;100684.25;7393947;19;20019;-57
2023/07/02 09:17:35;;;;;;;15.75;5.93;;;;;;;19.88;49.26;100694.00;7394187;19;20033;-57
2023/07/02 09:20:08;;;;;;;18.10;6.30;;;;;;;20.04;48.82;100695.75;7396117;19;20031;-55
2023/07/02 09:22:36;;;;;;;14.73;5.63;;;;;;;19.96;49.46;100703.88;7396588;19;20043;-57
2023/07/02 09:25:04;;;;;;;13.73;5.95;;;;;;;19.70;50.87;100701.47;7396424;19;20043;-58
2023/07/02 09:27:39;;;;;;;14.27;5.78;;;;;;;19.57;50.75;100715.38;7393594;19;20014;-58
2023/07/02 09:30:08;;;;;;;16.77;5.35;;;;;;;19.46;51.44;100719.31;7395532;19;20020;-57
2023/07/02 09:32:35;;;;;;;16.98;5.43;;;;;;;19.73;49.68;100703.81;7395797;19;20039;-58
2023/07/02 09:35:04;;;;;;;15.38;5.10;;;;;;;19.85;49.29;100709.63;7392490;19;20022;-58
2023/07/02 09:37:32;;;;;;;14.30;5.40;;;;;;;19.82;49.28;100716.19;7395116;19;20022;-59
2023/07/02 09:40:01;;;;;;;14.65;5.60;;;;;;;19.86;48.76;100705.94;7393470;19;20032;-58
2023/07/02 09:42:29;;;;;;;13.57;5.13;;;;;;;19.64;49.16;100702.16;7395545;19;20018;-58
2023/07/02 09:44:58;;;;;;;12.52;5.03;;;;;;;19.58;49.26;100711.72;7392879;19;20406;-58
2023/07/02 09:47:27;;;;;;;14.25;5.43;;;;;;;19.53;48.67;100719.44;7393872;19;20018;-59
2023/07/02 09:49:59;;;;;;;15.68;6.30;;;;;;;19.51;49.66;100704.53;7399217;19;20018;-56
2023/07/02 09:52:29;;;;;;;13.07;5.40;;;;;;;19.46;49.96;100710.41;7392071;19;20494;-59
2023/07/02 09:54:57;;;;;;;12.43;5.30;;;;;;;19.51;50.04;100717.94;7395742;19;20022;-58
2023/07/02 09:57:24;;;;;;;15.48;5.20;;;;;;;19.53;49.56;100702.47;7394939;19;20035;-57
2023/07/02 09:59:51;;;;;;;13.75;4.90;;;;;;;19.66;49.81;100714.41;7394374;19;20015;-58
2023/07/02 10:02:19;;;;;;;14.35;5.13;;;;;;;19.90;49.02;100702.72;7393935;19;20085;-58
2023/07/02 10:04:47;;;;;;;14.70;5.00;;;;;;;19.95;48.28;100704.88;7393273;19;20051;-56
2023/07/02 10:07:27;;;;;;;14.63;4.68;;;;;;;20.04;47.66;100705.69;7392883;19;20015;-57
2023/07/02 10:09:54;;;;;;;12.95;4.80;;;;;;;19.99;46.65;100703.50;7393851;19;20019;-56
2023/07/02 10:12:23;;;;;;;12.45;4.32;;;;;;;19.94;47.26;100711.25;7391997;19;20370;-58
2023/07/02 10:14:53;;;;;;;11.40;4.20;;;;;;;19.94;46.69;100717.47;7392964;19;20022;-58
2023/07/02 10:17:28;;;;;;;11.38;4.03;;;;;;;20.16;45.30;100697.03;7394191;19;20086;-54
2023/07/02 10:19:59;;;;;;;11.77;3.67;;;;;;;20.30;44.06;100699.97;7391938;19;20018;-56
2023/07/02 10:22:27;;;;;;;10.93;4.03;;;;;;;20.66;43.43;100698.41;7393387;19;20026;-57
2023/07/02 10:25:01;;;;;;;8.43;4.00;;;;;;;20.75;44.51;100711.78;7394877;19;20110;-58
2023/07/02 10:27:37;;;;;;;10.88;3.83;;;;;;;20.38;43.81;100697.25;7392455;19;20085;-59
2023/07/02 10:30:06;;;;;;;12.73;4.15;;;;;;;20.13;45.00;100715.38;7393669;19;20479;-58
2023/07/02 10:32:35;;;;;;;11.85;4.70;;;;;;;20.14;45.13;100714.34;7393160;19;20478;-60
2023/07/02 10:35:16;;;;;;;10.30;4.47;;;;;;;20.25;45.06;100710.44;7392432;19;20018;-61
2023/07/02 10:37:44;;;;;;;13.98;4.75;;;;;;;20.23;45.40;100721.38;7391530;19;20019;-60
2023/07/02 10:40:12;;;;;;;13.02;3.75;;;;;;;20.15;45.91;100722.25;7393015;19;20018;-60
2023/07/02 10:42:50;;;;;;;11.68;3.65;;;;;;;20.25;45.25;100729.25;7393298;19;20094;-61
2023/07/02 10:45:19;;;;;;;14.13;4.22;;;;;;;20.21;45.07;100718.84;7390745;19;20056;-59
2023/07/02 10:47:46;;;;;;;12.65;4.53;;;;;;;20.44;44.92;100723.41;7391598;19;20022;-60
2023/07/02 10:50:21;;;;;;;9.95;3.50;;;;;;;20.49;44.68;100726.47;7397525;19;20018;-58
2023/07/02 10:52:50;;;;;;;8.50;3.30;;;;;;;20.47;43.77;100725.75;7393005;19;20074;-59
2023/07/02 10:55:22;;;;;;;12.15;3.63;;;;;;;20.41;43.41;100729.16;7390773;19;20023;-59
2023/07/02 10:58:01;;;;;;;10.57;3.25;;;;;;;20.20;44.32;100725.25;7393284;19;20027;-59
2023/07/02 11:00:29;;;;;;;8.55;3.05;;;;;;;19.86;43.91;100740.88;7392684;19;20122;-59
2023/07/02 11:02:57;;;;;;;9.05;3.03;;;;;;;19.78;45.44;100749.81;7392623;19;20021;-60
2023/07/02 11:05:25;;;;;;;10.52;3.17;;;;;;;19.94;46.11;100752.41;7389991;19;20021;-60
2023/07/02 11:08:08;;;;;;;10.93;3.20;;;;;;;20.01;46.85;100749.03;7391686;19;20019;-58
2023/07/02 11:10:35;;;;;;;10.48;3.45;;;;;;;19.94;46.85;100733.59;7392770;19;20015;-58
2023/07/02 11:13:20;;;;;;;10.32;3.08;;;;;;;19.98;45.64;100757.44;7392597;19;20072;-58
2023/07/02 11:15:47;;;;;;;9.95;3.08;;;;;;;19.94;46.14;100757.78;7390492;19;20014;-59
2023/07/02 11:18:17;;;;;;;11.13;3.13;;;;;;;20.00;45.10;100734.78;7392310;19;20492;-59
2023/07/02 11:20:46;;;;;;;9.45;3.03;;;;;;;20.09;44.64;100741.78;7391971;19;20022;-60
2023/07/02 11:23:18;;;;;;;9.02;2.70;;;;;;;20.27;44.39;100754.13;7392132;19;20043;-60